AIRPORT ID: KEDG

DATE: 2021-12-09 ZULU TIME: 1.35 LOCAL TIME: 20.35


METAR KEDG 090135Z AUTO 00000KT 10SM 03/M02 A3001

ALTIMETER: A3001 Q1016

DENSITY ALT: -1300 Ft

WIND DIRECT: 290

WIND SPEED: 2 Gust

WIND CONDITIONS:

VISIBILTY: 10SM 9999M

TEMPERATURE: 38 F 3 C

DEW POINT: 29 F -2 C

HUMID: 69%

LCL: 1,000-3,000 feet

RADIO CHECK: 0

ADVISARIES: 0

GREETINGS: 0

CONVERSATIONS: 6